Time;durP1;ratioP1;P1;durP2;ratioP2;P2;SDS_P1;SDS_P2;PMS_P1;PMS_P2;Temp;Humidity;BMP_temperature;BMP_pressure;BME280_temperature;BME280_humidity;BME280_pressure;Samples;Min_cycle;Max_cycle;Signal;HPM_P1;HPM_P2
2022/01/12 00:00:22;;;;;;;0.10;0.10;;;;;;;2.82;90.43;103709.81;5014918;28;20041;-70
2022/01/12 00:02:47;;;;;;;0.10;0.10;;;;;;;2.80;90.42;103717.41;5015329;28;20026;-70
2022/01/12 00:05:15;;;;;;;0.13;0.13;;;;;;;2.83;90.42;103709.06;5020231;28;20254;-70
2022/01/12 00:07:40;;;;;;;0.10;0.10;;;;;;;2.83;90.55;103710.00;5035672;28;20029;-69
2022/01/12 00:10:06;;;;;;;0.20;0.20;;;;;;;2.84;90.52;103706.66;5035777;28;20366;-70
2022/01/12 00:12:32;;;;;;;0.10;0.10;;;;;;;2.85;90.53;103707.53;4998311;28;1091957;-70
2022/01/12 00:14:57;;;;;;;0.10;0.10;;;;;;;2.84;90.63;103701.47;5036827;28;20026;-69
2022/01/12 00:17:22;;;;;;;0.03;0.03;;;;;;;2.85;90.69;103689.44;5036401;28;20415;-70
2022/01/12 00:19:48;;;;;;;0.00;0.00;;;;;;;2.86;90.61;103686.13;5035984;28;20107;-70
2022/01/12 00:22:14;;;;;;;0.10;0.10;;;;;;;2.87;90.64;103688.84;5036496;28;20108;-70
2022/01/12 00:25:03;;;;;;;0.10;0.10;;;;;;;2.87;90.60;103668.13;5035384;28;20364;-70
2022/01/12 00:33:09;;;;;;;0.00;0.00;;;;;;;2.83;90.71;103681.53;5031789;28;20048;-69
2022/01/12 00:35:36;;;;;;;0.00;0.00;;;;;;;2.83;90.72;103678.00;5017100;28;20052;-70
2022/01/12 00:38:04;;;;;;;0.00;0.00;;;;;;;2.82;90.68;103686.53;5016485;28;20026;-69
2022/01/12 00:40:29;;;;;;;0.00;0.00;;;;;;;2.82;90.78;103695.22;5015902;28;20117;-71
2022/01/12 00:42:55;;;;;;;0.00;0.00;;;;;;;2.85;90.46;103702.38;5017072;28;20119;-70
2022/01/12 00:45:21;;;;;;;0.00;0.00;;;;;;;2.85;90.54;103704.94;4999868;28;20108;-70
2022/01/12 00:47:47;;;;;;;0.00;0.00;;;;;;;2.81;90.04;103706.31;5025896;28;20041;-70
2022/01/12 00:50:12;;;;;;;0.00;0.00;;;;;;;2.81;90.62;103698.53;5019548;28;20025;-71
2022/01/12 00:52:38;;;;;;;0.00;0.00;;;;;;;2.82;90.57;103696.88;5036384;28;20021;-70
2022/01/12 00:55:04;;;;;;;0.00;0.00;;;;;;;2.81;90.61;103695.06;5036848;28;20025;-70
2022/01/12 00:57:30;;;;;;;0.00;0.00;;;;;;;2.81;90.72;103700.22;5036676;28;20064;-71
2022/01/12 00:59:55;;;;;;;0.10;0.10;;;;;;;2.80;90.55;103695.81;5036256;28;20079;-70
2022/01/12 01:02:21;;;;;;;0.00;0.00;;;;;;;2.79;90.75;103699.16;5020499;28;20266;-69
2022/01/12 01:04:46;;;;;;;0.00;0.00;;;;;;;2.79;90.89;103694.88;5016070;28;20036;-70
2022/01/12 01:07:12;;;;;;;0.00;0.00;;;;;;;2.80;90.51;103691.53;5035414;28;20032;-70
2022/01/12 01:09:42;;;;;;;0.10;0.10;;;;;;;2.81;90.75;103683.00;5036260;28;20025;-70
2022/01/12 01:12:08;;;;;;;0.10;0.10;;;;;;;2.82;90.87;103673.59;5036274;28;20049;-70
2022/01/12 01:14:46;;;;;;;0.10;0.10;;;;;;;2.84;90.80;103678.16;5025906;28;20025;-70
2022/01/12 01:25:33;;;;;;;0.00;0.00;;;;;;;2.86;90.86;103670.59;5019390;28;20171;-70
2022/01/12 01:28:00;;;;;;;0.10;0.10;;;;;;;2.85;90.83;103679.06;5027367;28;20053;-70
2022/01/12 01:30:25;;;;;;;0.00;0.00;;;;;;;2.85;90.83;103679.06;5038922;28;20072;-70
2022/01/12 01:32:50;;;;;;;0.00;0.00;;;;;;;2.87;90.91;103677.59;5039039;28;20021;-71
2022/01/12 01:35:18;;;;;;;0.00;0.00;;;;;;;2.89;90.88;103687.31;5038965;28;20060;-70
2022/01/12 01:37:43;;;;;;;0.00;0.00;;;;;;;2.90;91.04;103693.44;5038923;28;20051;-70
2022/01/12 01:40:10;;;;;;;0.00;0.00;;;;;;;2.91;90.80;103708.19;5039686;28;20356;-70
2022/01/12 01:53:36;;;;;;;0.03;0.03;;;;;;;2.96;91.23;103753.63;5039226;28;20052;-71
2022/01/12 01:56:02;;;;;;;0.10;0.10;;;;;;;2.98;91.06;103758.94;5022045;28;20117;-70
2022/01/12 01:58:27;;;;;;;0.00;0.00;;;;;;;2.99;91.28;103777.25;5038013;28;20029;-70
2022/01/12 02:00:53;;;;;;;0.00;0.00;;;;;;;3.01;91.21;103787.78;5029286;28;20026;-70
2022/01/12 02:03:19;;;;;;;0.00;0.00;;;;;;;3.00;91.13;103785.94;5018917;28;20296;-70
2022/01/12 02:05:44;;;;;;;0.00;0.00;;;;;;;3.00;91.50;103796.28;5009771;28;20392;-70
2022/01/12 02:08:10;;;;;;;0.10;0.10;;;;;;;3.01;91.27;103800.72;5038653;28;20037;-70
2022/01/12 02:10:35;;;;;;;0.10;0.10;;;;;;;3.00;91.23;103799.78;5038314;28;20280;-70
2022/01/12 02:13:01;;;;;;;0.00;0.00;;;;;;;3.01;91.43;103803.31;5038256;28;20030;-71
2022/01/12 02:15:27;;;;;;;0.00;0.00;;;;;;;3.02;91.44;103805.13;5038871;28;20018;-70
2022/01/12 02:18:06;;;;;;;0.00;0.00;;;;;;;3.02;91.15;103803.47;5037746;28;20103;-70
2022/01/12 02:39:45;;;;;;;0.00;0.00;;;;;;;3.11;91.25;103818.16;5018940;28;20124;-70
2022/01/12 02:40:05;;;;;;;0.00;0.00;;;;;;;3.12;91.13;103812.22;5018557;28;20040;-70
2022/01/12 02:42:31;;;;;;;0.10;0.10;;;;;;;3.13;91.08;103824.41;5017137;28;20100;-70
2022/01/12 02:50:53;;;;;;;0.10;0.10;;;;;;;3.16;91.45;103811.78;5019864;28;20107;-70
2022/01/12 02:56:02;;;;;;;0.00;0.00;;;;;;;3.15;91.27;103813.47;5018947;28;20291;-70
2022/01/12 02:58:28;;;;;;;0.10;0.10;;;;;;;3.19;91.20;103811.19;5018646;28;20431;-70
2022/01/12 03:03:33;;;;;;;0.00;0.00;;;;;;;3.19;91.05;103813.78;5017376;28;20034;-70
2022/01/12 03:06:01;;;;;;;0.37;0.37;;;;;;;3.18;91.17;103799.94;5026137;28;20275;-71
2022/01/12 03:08:28;;;;;;;0.00;0.00;;;;;;;3.19;91.21;103803.41;5038144;28;20017;-69
2022/01/12 03:10:53;;;;;;;0.03;0.03;;;;;;;3.21;91.21;103791.53;5038743;28;20029;-69
2022/01/12 03:13:20;;;;;;;0.00;0.00;;;;;;;3.21;91.22;103786.38;5038295;28;20025;-71
2022/01/12 03:15:47;;;;;;;0.07;0.07;;;;;;;3.20;91.25;103779.34;5036849;28;20021;-69
2022/01/12 03:18:14;;;;;;;0.10;0.10;;;;;;;3.19;91.13;103796.59;5036520;28;20087;-69
2022/01/12 03:20:39;;;;;;;0.00;0.00;;;;;;;3.20;91.29;103807.84;5036965;28;20376;-70
2022/01/12 03:23:04;;;;;;;0.10;0.10;;;;;;;3.21;91.25;103820.97;5036250;28;20032;-70
2022/01/12 03:25:30;;;;;;;0.00;0.00;;;;;;;3.24;91.31;103830.75;5037924;28;20040;-69
2022/01/12 03:27:59;;;;;;;0.00;0.00;;;;;;;3.24;91.40;103829.06;5038201;28;20040;-70
2022/01/12 03:30:25;;;;;;;0.27;0.27;;;;;;;3.25;91.13;103838.66;5037490;28;20342;-70
2022/01/12 03:33:05;;;;;;;0.10;0.10;;;;;;;3.25;91.37;103833.47;5035797;28;20040;-71
2022/01/12 03:38:31;;;;;;;0.10;0.10;;;;;;;3.26;91.36;103842.16;4995424;28;20122;-71
2022/01/12 03:40:57;;;;;;;0.20;0.20;;;;;;;3.27;91.68;103838.81;5013266;28;20116;-70
2022/01/12 03:43:22;;;;;;;0.10;0.10;;;;;;;3.27;91.31;103842.34;5017326;28;20083;-71
2022/01/12 03:45:48;;;;;;;0.10;0.10;;;;;;;3.28;91.37;103843.25;5016189;28;20042;-71
2022/01/12 03:48:14;;;;;;;0.00;0.00;;;;;;;3.29;91.33;103847.66;5017498;28;20037;-70
2022/01/12 03:50:39;;;;;;;0.10;0.10;;;;;;;3.28;91.22;103845.84;5017135;28;20026;-70
2022/01/12 03:53:05;;;;;;;0.00;0.00;;;;;;;3.28;91.58;103846.78;5016980;28;20026;-70
2022/01/12 03:55:30;;;;;;;0.00;0.00;;;;;;;3.30;91.39;103846.91;5030328;28;20040;-71
2022/01/12 03:57:56;;;;;;;0.00;0.00;;;;;;;3.31;91.66;103853.97;5036556;28;20037;-70
2022/01/12 04:00:21;;;;;;;0.57;0.57;;;;;;;3.32;91.58;103855.78;5036579;28;20021;-70
2022/01/12 04:02:47;;;;;;;0.00;0.00;;;;;;;3.34;91.54;103851.69;5035577;28;20072;-69
2022/01/12 04:05:28;;;;;;;0.10;0.10;;;;;;;3.36;91.45;103844.97;5037145;28;20026;-70
2022/01/12 04:10:57;;;;;;;0.00;0.00;;;;;;;3.35;91.29;103843.16;5008919;28;20030;-70
2022/01/12 04:13:24;;;;;;;0.03;0.03;;;;;;;3.33;91.26;103834.31;5009210;28;20099;-70
2022/01/12 04:15:56;;;;;;;0.07;0.07;;;;;;;3.32;91.51;103826.34;5017021;28;20024;-70
2022/01/12 04:18:22;;;;;;;0.00;0.00;;;;;;;3.28;91.61;103835.47;5016150;28;20057;-70
2022/01/12 04:20:49;;;;;;;1.43;0.43;;;;;;;3.25;91.32;103837.75;5015969;28;20393;-70
2022/01/12 04:23:19;;;;;;;0.00;0.00;;;;;;;3.21;91.41;103831.31;5017213;28;20034;-70
2022/01/12 04:25:46;;;;;;;0.00;0.00;;;;;;;3.20;91.28;103845.03;5016351;28;20097;-70
2022/01/12 04:28:12;;;;;;;0.03;0.03;;;;;;;3.18;91.40;103858.56;5018411;28;20386;-70
2022/01/12 04:30:37;;;;;;;0.10;0.10;;;;;;;3.16;91.46;103858.41;4999842;28;20101;-70
2022/01/12 04:33:02;;;;;;;0.00;0.00;;;;;;;3.15;91.18;103864.34;5016622;28;20018;-71
2022/01/12 04:35:33;;;;;;;0.00;0.00;;;;;;;3.16;91.54;103866.16;5016706;28;20022;-70
2022/01/12 04:37:58;;;;;;;0.07;0.07;;;;;;;3.15;91.45;103861.75;5017223;28;20230;-69
2022/01/12 04:40:24;;;;;;;0.00;0.00;;;;;;;3.11;91.55;103857.91;5017308;28;20037;-69
2022/01/12 04:42:49;;;;;;;0.00;0.00;;;;;;;3.07;91.49;103847.97;5015999;28;20029;-70
2022/01/12 04:45:37;;;;;;;0.00;0.00;;;;;;;3.03;91.49;103845.81;5017779;28;20030;-70
2022/01/12 04:48:09;;;;;;;0.00;0.00;;;;;;;2.97;91.42;103848.66;5019908;28;20030;-70
2022/01/12 04:50:37;;;;;;;0.00;0.00;;;;;;;2.91;91.33;103844.50;5019792;28;20072;-69
2022/01/12 04:53:04;;;;;;;0.00;0.00;;;;;;;2.86;91.42;103844.00;5019803;28;20065;-70
2022/01/12 04:55:29;;;;;;;0.00;0.00;;;;;;;2.83;91.31;103844.59;5020470;28;20367;-70
2022/01/12 04:57:54;;;;;;;0.00;0.00;;;;;;;2.79;91.52;103842.41;5019899;28;20064;-70
2022/01/12 05:00:21;;;;;;;0.00;0.00;;;;;;;2.77;92.00;103842.97;5021152;28;20034;-70
2022/01/12 05:13:38;;;;;;;0.00;0.00;;;;;;;2.65;91.58;103874.56;5039814;28;20347;-69
2022/01/12 05:16:04;;;;;;;0.00;0.00;;;;;;;2.65;91.59;103876.22;5040104;28;20108;-70
2022/01/12 05:18:31;;;;;;;0.00;0.00;;;;;;;2.63;91.46;103876.06;5023008;28;20369;-69
2022/01/12 05:20:57;;;;;;;0.00;0.00;;;;;;;2.60;91.55;103879.22;5020184;28;20032;-69
2022/01/12 05:23:23;;;;;;;0.00;0.00;;;;;;;2.56;91.61;103877.03;5019628;28;20109;-69
2022/01/12 05:25:49;;;;;;;0.00;0.00;;;;;;;2.54;91.76;103880.22;5019131;28;20026;-69
2022/01/12 05:28:15;;;;;;;0.00;0.00;;;;;;;2.52;91.61;103884.28;5020145;28;20084;-70
2022/01/12 05:30:41;;;;;;;0.00;0.00;;;;;;;2.51;91.64;103877.28;5018624;28;20312;-69
2022/01/12 05:33:06;;;;;;;0.10;0.10;;;;;;;2.49;91.51;103881.38;5019280;28;20045;-69
2022/01/12 05:35:33;;;;;;;0.00;0.00;;;;;;;2.44;91.74;103886.94;5020571;28;20072;-70
2022/01/12 05:38:00;;;;;;;0.00;0.00;;;;;;;2.39;91.70;103882.97;5019536;28;20068;-69
2022/01/12 05:40:26;;;;;;;0.00;0.00;;;;;;;2.34;91.65;103886.69;5019847;28;20032;-69
2022/01/12 05:42:52;;;;;;;0.00;0.00;;;;;;;2.31;91.52;103895.03;5019679;28;20296;-68
2022/01/12 05:45:19;;;;;;;0.00;0.00;;;;;;;2.27;91.37;103904.84;5019514;28;20307;-70
2022/01/12 05:50:11;;;;;;;0.00;0.00;;;;;;;2.19;91.70;103902.34;5020721;28;20045;-69
2022/01/12 05:52:37;;;;;;;0.00;0.00;;;;;;;2.16;91.26;103907.19;5017701;28;20312;-69
2022/01/12 05:55:03;;;;;;;0.00;0.00;;;;;;;2.12;91.57;103906.66;5019606;28;20030;-69
2022/01/12 05:57:32;;;;;;;0.00;0.00;;;;;;;2.07;91.74;103911.31;5018767;28;20040;-69
2022/01/12 05:59:58;;;;;;;0.00;0.00;;;;;;;2.03;91.63;103912.63;5019521;28;20352;-69
2022/01/12 06:02:23;;;;;;;0.00;0.00;;;;;;;1.98;91.43;103911.19;5018544;28;20289;-69
2022/01/12 06:04:49;;;;;;;0.33;0.33;;;;;;;1.94;91.13;103905.50;5023275;28;20288;-70
2022/01/12 06:07:14;;;;;;;0.00;0.00;;;;;;;1.88;92.12;103905.75;5035019;28;20060;-69
2022/01/12 06:09:40;;;;;;;0.00;0.00;;;;;;;1.84;91.43;103924.22;5018205;28;20396;-69
2022/01/12 06:12:06;;;;;;;0.00;0.00;;;;;;;1.80;91.65;103928.09;5018346;28;20048;-69
2022/01/12 06:14:31;;;;;;;0.00;0.00;;;;;;;1.74;91.59;103942.94;5018660;28;20352;-69
2022/01/12 06:16:57;;;;;;;0.00;0.00;;;;;;;1.70;91.57;103945.91;5035090;28;20038;-70
2022/01/12 06:19:22;;;;;;;0.00;0.00;;;;;;;1.70;91.53;103943.31;5023319;28;20289;-69
2022/01/12 06:21:47;;;;;;;0.00;0.00;;;;;;;1.69;91.38;103954.41;5025092;28;20121;-69
2022/01/12 06:24:13;;;;;;;0.00;0.00;;;;;;;1.69;91.53;103952.75;5029310;28;20076;-70
2022/01/12 06:26:38;;;;;;;0.00;0.00;;;;;;;1.68;91.59;103956.06;5010215;28;20072;-69
2022/01/12 06:31:40;;;;;;;0.00;0.00;;;;;;;1.66;91.77;103959.22;5026607;28;20065;-69
2022/01/12 06:34:06;;;;;;;0.00;0.00;;;;;;;1.63;91.72;103960.69;5027637;28;20295;-69
2022/01/12 06:36:32;;;;;;;0.00;0.00;;;;;;;1.58;91.53;103961.84;5029582;28;20284;-69
2022/01/12 06:38:57;;;;;;;0.10;0.10;;;;;;;1.58;91.93;103963.50;5019275;28;20034;-70
2022/01/12 06:41:23;;;;;;;0.00;0.00;;;;;;;1.55;91.88;103958.88;5021854;28;20025;-70
2022/01/12 06:43:52;;;;;;;0.10;0.10;;;;;;;1.54;91.82;103964.81;5024080;28;20356;-70
2022/01/12 06:46:23;;;;;;;0.00;0.00;;;;;;;1.53;91.84;103962.03;5024110;28;20519;-69
2022/01/12 06:48:48;;;;;;;0.00;0.00;;;;;;;1.50;91.94;103968.69;5028556;28;20330;-69
2022/01/12 06:51:14;;;;;;;0.00;0.00;;;;;;;1.46;91.72;103968.16;5025847;28;20284;-69
2022/01/12 06:53:39;;;;;;;0.10;0.10;;;;;;;1.42;91.77;103989.22;5023542;28;20270;-68
2022/01/12 06:56:05;;;;;;;0.00;0.00;;;;;;;1.39;91.74;103979.47;5023616;28;20048;-70
2022/01/12 06:58:31;;;;;;;0.00;0.00;;;;;;;1.40;91.81;103995.84;5029315;28;20025;-69
2022/01/12 07:01:00;;;;;;;0.00;0.00;;;;;;;1.41;91.91;103998.63;5030247;28;20144;-70
2022/01/12 07:03:26;;;;;;;0.00;0.00;;;;;;;1.43;91.91;104002.31;5015595;28;20034;-70
2022/01/12 07:05:52;;;;;;;0.00;0.00;;;;;;;1.45;91.79;104005.06;5009909;28;20282;-68
2022/01/12 07:08:18;;;;;;;0.00;0.00;;;;;;;1.46;91.92;104005.25;5036415;28;20526;-69
2022/01/12 07:10:43;;;;;;;0.00;0.00;;;;;;;1.49;91.91;104013.34;5034774;28;20029;-69
2022/01/12 07:13:10;;;;;;;0.00;0.00;;;;;;;1.50;92.10;104012.59;5037353;28;20040;-70
2022/01/12 07:15:38;;;;;;;0.00;0.00;;;;;;;1.54;92.04;104013.88;5037322;28;20116;-69
2022/01/12 07:18:04;;;;;;;0.00;0.00;;;;;;;1.57;91.96;104003.00;5036278;28;20284;-69
2022/01/12 07:20:29;;;;;;;0.00;0.00;;;;;;;1.56;92.13;104007.22;5036812;28;20272;-69
2022/01/12 07:22:54;;;;;;;0.00;0.00;;;;;;;1.57;92.03;104008.16;5037184;28;20063;-70
2022/01/12 07:25:20;;;;;;;0.00;0.00;;;;;;;1.55;91.96;104004.50;5029771;28;20021;-69
2022/01/12 07:27:45;;;;;;;0.00;0.00;;;;;;;1.54;92.10;104000.97;5037010;28;20083;-69
2022/01/12 07:30:11;;;;;;;0.00;0.00;;;;;;;1.53;92.04;104009.47;5037062;28;20477;-69
2022/01/12 07:32:36;;;;;;;0.00;0.00;;;;;;;1.54;92.08;104013.00;5034860;28;20410;-69
2022/01/12 07:35:03;;;;;;;0.00;0.00;;;;;;;1.53;91.94;104012.06;5036525;28;20280;-70
2022/01/12 07:37:28;;;;;;;0.00;0.00;;;;;;;1.53;92.27;104017.22;5035649;28;20104;-69
2022/01/12 07:39:53;;;;;;;0.00;0.00;;;;;;;1.53;92.20;104019.81;5028337;28;20367;-70
2022/01/12 07:42:19;;;;;;;0.00;0.00;;;;;;;1.54;92.14;104026.81;5036833;28;20045;-69
2022/01/12 07:44:44;;;;;;;0.00;0.00;;;;;;;1.56;92.11;104030.47;5036144;28;20033;-69
2022/01/12 07:47:09;;;;;;;0.00;0.00;;;;;;;1.58;92.06;104023.84;5036875;28;20096;-69
2022/01/12 07:49:36;;;;;;;0.00;0.00;;;;;;;1.59;92.23;104032.50;5036396;28;20025;-69
2022/01/12 07:52:03;;;;;;;0.00;0.00;;;;;;;1.60;92.13;104030.09;5036800;28;20029;-70
2022/01/12 07:54:29;;;;;;;0.00;0.00;;;;;;;1.60;92.14;104035.28;5029577;28;20686;-69
2022/01/12 07:56:54;;;;;;;0.00;0.00;;;;;;;1.60;92.20;104040.44;5035040;28;20279;-69
2022/01/12 07:59:19;;;;;;;0.00;0.00;;;;;;;1.61;92.21;104041.34;5036498;28;20090;-70
2022/01/12 08:01:45;;;;;;;0.00;0.00;;;;;;;1.63;92.19;104047.63;5031836;28;20037;-69
2022/01/12 08:04:10;;;;;;;0.00;0.00;;;;;;;1.65;92.34;104061.66;5020884;28;20112;-69
2022/01/12 08:06:36;;;;;;;0.00;0.00;;;;;;;1.66;92.23;104063.47;5031514;28;20033;-71
2022/01/12 08:09:01;;;;;;;0.00;0.00;;;;;;;1.68;91.96;104069.75;5036206;28;20033;-70
2022/01/12 08:11:26;;;;;;;0.00;0.00;;;;;;;1.70;92.20;104075.09;5012669;28;20038;-69
2022/01/12 08:13:52;;;;;;;0.00;0.00;;;;;;;1.71;92.37;104074.34;5017102;28;20462;-70
2022/01/12 08:16:18;;;;;;;0.00;0.00;;;;;;;1.70;92.23;104088.00;5022172;28;20312;-71
2022/01/12 08:18:43;;;;;;;0.00;0.00;;;;;;;1.70;92.20;104077.69;5026460;28;20280;-68
2022/01/12 08:21:09;;;;;;;0.00;0.00;;;;;;;1.70;92.23;104086.38;5021205;28;20399;-70
2022/01/12 08:23:34;;;;;;;0.00;0.00;;;;;;;1.70;92.23;104083.78;5020999;28;20376;-70
2022/01/12 08:26:00;;;;;;;0.00;0.00;;;;;;;1.69;92.28;104075.84;5020242;28;20026;-71
2022/01/12 08:28:25;;;;;;;0.00;0.00;;;;;;;1.67;92.16;104086.00;5021056;28;20041;-69
2022/01/12 08:30:51;;;;;;;0.00;0.00;;;;;;;1.67;92.13;104090.25;5020699;28;20026;-71
2022/01/12 08:33:17;;;;;;;0.00;0.00;;;;;;;1.66;92.10;104086.72;5020392;28;20076;-70
2022/01/12 08:35:43;;;;;;;0.00;0.00;;;;;;;1.67;92.13;104088.56;5021867;28;20037;-69
2022/01/12 08:38:08;;;;;;;0.00;0.00;;;;;;;1.68;92.23;104095.56;5027452;28;20029;-71
2022/01/12 08:40:37;;;;;;;0.00;0.00;;;;;;;1.69;92.21;104110.38;5028519;28;20279;-68
2022/01/12 08:43:04;;;;;;;0.53;0.37;;;;;;;1.70;92.10;104107.03;5028613;28;20108;-69
2022/01/12 08:45:29;;;;;;;0.00;0.00;;;;;;;1.72;92.22;104112.38;5029502;28;20538;-71
2022/01/12 08:47:55;;;;;;;0.00;0.00;;;;;;;1.74;92.13;104119.56;5027055;28;20295;-70
2022/01/12 08:50:20;;;;;;;0.00;0.00;;;;;;;1.75;92.08;104125.66;5029244;28;20091;-69
2022/01/12 08:52:47;;;;;;;0.10;0.10;;;;;;;1.75;91.98;104123.06;5007830;28;20073;-69
2022/01/12 08:55:14;;;;;;;0.20;0.20;;;;;;;1.74;92.13;104121.25;5003803;28;20121;-70
2022/01/12 08:57:43;;;;;;;0.00;0.00;;;;;;;1.74;92.20;104116.97;5019833;28;20287;-69
2022/01/12 09:00:09;;;;;;;0.00;0.00;;;;;;;1.80;92.00;104128.78;5020482;28;20273;-70
2022/01/12 09:02:35;;;;;;;0.00;0.00;;;;;;;1.75;92.12;104133.41;5018672;28;20304;-70
2022/01/12 09:05:01;;;;;;;0.00;0.00;;;;;;;1.72;92.04;104135.63;5030019;28;20033;-68
2022/01/12 09:07:26;;;;;;;0.00;0.00;;;;;;;1.72;91.72;104140.78;5028009;28;20551;-69
2022/01/12 09:09:52;;;;;;;0.00;0.00;;;;;;;1.73;91.96;104151.31;5020453;28;20041;-69
2022/01/12 09:12:18;;;;;;;0.00;0.00;;;;;;;1.75;92.00;104142.06;5020274;28;20033;-70
2022/01/12 09:14:44;;;;;;;0.00;0.00;;;;;;;1.80;91.79;104160.69;5018957;28;20034;-69
2022/01/12 09:17:16;;;;;;;0.00;0.00;;;;;;;1.84;91.83;104162.91;5018900;28;20316;-68
2022/01/12 09:19:41;;;;;;;0.00;0.00;;;;;;;1.92;92.05;104162.16;5017750;28;20320;-69
2022/01/12 09:22:07;;;;;;;0.00;0.00;;;;;;;1.96;92.03;104175.41;5018911;28;20347;-70
2022/01/12 09:24:32;;;;;;;0.00;0.00;;;;;;;1.97;91.92;104169.50;5017805;28;20030;-69
2022/01/12 09:26:57;;;;;;;0.00;0.00;;;;;;;1.98;91.98;104177.44;5017520;28;20284;-69
2022/01/12 09:29:23;;;;;;;0.00;0.00;;;;;;;2.04;91.93;104173.00;5018976;28;20327;-69
2022/01/12 09:31:51;;;;;;;0.00;0.00;;;;;;;2.11;92.09;104189.25;5018181;28;20042;-69
2022/01/12 09:34:17;;;;;;;0.00;0.00;;;;;;;2.09;91.88;104188.13;5019751;28;20722;-69
2022/01/12 09:36:42;;;;;;;0.00;0.00;;;;;;;2.11;91.93;104189.25;5019971;28;20273;-69
2022/01/12 09:39:09;;;;;;;0.00;0.00;;;;;;;2.16;91.95;104191.63;5020589;28;20038;-69
2022/01/12 09:41:35;;;;;;;0.00;0.00;;;;;;;2.22;92.03;104191.41;5019928;28;20097;-70
2022/01/12 09:44:01;;;;;;;0.00;0.00;;;;;;;2.27;92.06;104190.28;5020346;28;20216;-69
2022/01/12 09:46:27;;;;;;;0.00;0.00;;;;;;;2.28;91.92;104197.28;5019324;28;20367;-69
2022/01/12 09:48:53;;;;;;;0.00;0.00;;;;;;;2.35;92.08;104196.31;5019703;28;20364;-70
2022/01/12 09:51:19;;;;;;;0.00;0.00;;;;;;;2.37;91.89;104196.53;5020178;28;20093;-70
2022/01/12 09:53:44;;;;;;;0.00;0.00;;;;;;;2.42;91.81;104208.34;5002096;28;20614;-70
2022/01/12 09:56:24;;;;;;;0.00;0.00;;;;;;;2.47;91.38;104199.41;5020175;28;20025;-69
2022/01/12 09:58:54;;;;;;;0.00;0.00;;;;;;;2.42;91.58;104200.56;5020184;28;20026;-70
2022/01/12 10:01:45;;;;;;;0.00;0.00;;;;;;;2.47;91.33;104202.00;5019875;28;20357;-68
2022/01/12 10:04:16;;;;;;;0.00;0.00;;;;;;;2.51;91.72;104203.28;5019474;28;20030;-70
2022/01/12 10:06:53;;;;;;;0.00;0.00;;;;;;;2.52;91.80;104211.22;5034484;28;20033;-68
2022/01/12 10:09:23;;;;;;;0.00;0.00;;;;;;;2.55;91.67;104214.16;5038803;28;20040;-70
2022/01/12 10:11:53;;;;;;;0.00;0.00;;;;;;;2.61;91.76;104214.88;5038645;28;20041;-70
2022/01/12 10:14:19;;;;;;;0.03;0.03;;;;;;;2.69;91.66;104231.25;5039195;28;20026;-69
2022/01/12 10:16:56;;;;;;;0.00;0.00;;;;;;;2.69;91.95;104222.59;5039017;28;20049;-70
2022/01/12 10:19:32;;;;;;;0.00;0.00;;;;;;;2.72;91.67;104223.88;5038708;28;20029;-70
2022/01/12 10:21:59;;;;;;;0.00;0.00;;;;;;;2.75;91.93;104225.91;5039330;28;20188;-69
2022/01/12 10:24:25;;;;;;;0.00;0.00;;;;;;;2.81;91.86;104211.03;5039147;28;20283;-69
2022/01/12 10:26:51;;;;;;;0.00;0.00;;;;;;;2.84;91.52;104208.81;5038403;28;20295;-70
2022/01/12 10:29:22;;;;;;;0.00;0.00;;;;;;;2.88;91.60;104207.50;5038898;28;20044;-69
2022/01/12 10:31:59;;;;;;;0.00;0.00;;;;;;;2.93;91.59;104200.25;5038328;28;20013;-69
2022/01/12 10:34:43;;;;;;;0.00;0.00;;;;;;;3.00;91.42;104185.59;5037504;28;20356;-70
2022/01/12 10:37:11;;;;;;;0.00;0.00;;;;;;;3.04;91.61;104199.78;5038073;28;20025;-69
2022/01/12 10:39:41;;;;;;;0.00;0.00;;;;;;;3.11;91.67;104199.75;5038381;28;20125;-69
2022/01/12 10:42:13;;;;;;;0.00;0.00;;;;;;;3.19;91.54;104197.09;5037794;28;20124;-69
2022/01/12 10:44:40;;;;;;;0.00;0.00;;;;;;;3.22;92.04;104200.97;5037021;28;20043;-71
2022/01/12 10:47:23;;;;;;;0.00;0.00;;;;;;;3.26;91.43;104189.28;5038690;28;20021;-70
2022/01/12 10:49:55;;;;;;;0.00;0.00;;;;;;;3.28;91.69;104192.94;5037081;28;20104;-70
2022/01/12 10:52:31;;;;;;;0.00;0.00;;;;;;;3.27;91.68;104199.81;5038397;28;20021;-70
2022/01/12 10:54:57;;;;;;;;;;;;;;;3.25;91.17;104211.66;5038827;28;20028;-69
2022/01/12 10:57:22;;;;;;;;;;;;;;;3.29;91.90;104219.03;5038786;28;19908;-68
2022/01/12 11:00:08;;;;;;;;;;;;;;;3.32;91.47;104218.47;5037548;28;19919;-69
2022/01/12 11:02:33;;;;;;;;;;;;;;;3.32;91.35;104207.16;5037030;28;19909;-69
2022/01/12 11:04:59;;;;;;;;;;;;;;;3.32;91.12;104210.69;5038387;28;20008;-68
2022/01/12 11:07:25;;;;;;;;;;;;;;;3.39;91.08;104213.22;5038419;28;19913;-69
2022/01/12 11:09:51;;;;;;;;;;;;;;;3.43;91.29;104206.72;5038104;28;19913;-68
2022/01/12 11:12:17;;;;;;;;;;;;;;;3.49;91.32;104201.28;5020207;28;19931;-69
2022/01/12 11:14:42;;;;;;;;;;;;;;;3.57;91.04;104198.78;5038063;28;19909;-71
2022/01/12 11:17:07;;;;;;;;;;;;;;;3.61;91.03;104189.69;5038356;28;20007;-68
2022/01/12 11:19:33;;;;;;;;;;;;;;;3.61;90.98;104181.00;5036325;28;19998;-68
2022/01/12 11:22:20;;;;;;;;;;;;;;;3.65;90.80;104184.09;5026629;28;19909;-69
2022/01/12 11:24:45;;;;;;;;;;;;;;;3.66;90.63;104182.41;5024838;28;19956;-69
2022/01/12 11:27:18;;;;;;;;;;;;;;;3.54;90.31;104192.34;5027458;28;20287;-69
2022/01/12 11:29:44;;;;;;;;;;;;;;;3.55;90.52;104183.84;5011251;28;20003;-70
2022/01/12 11:32:13;;;;;;;;;;;;;;;3.63;90.58;104182.06;5028707;28;20007;-69
2022/01/12 11:34:38;;;;;;;;;;;;;;;3.62;90.65;104175.06;5025074;28;19928;-69
2022/01/12 11:37:14;;;;;;;;;;;;;;;3.62;90.50;104180.25;5023911;28;19913;-69
2022/01/12 11:39:39;;;;;;;;;;;;;;;3.61;90.53;104174.13;5034213;28;20199;-69
2022/01/12 11:42:04;;;;;;;;;;;;;;;3.62;90.30;104173.38;5025381;28;19913;-70
2022/01/12 11:44:33;;;;;;;;;;;;;;;3.62;90.39;104175.06;5028173;28;19939;-69
2022/01/12 11:46:59;;;;;;;;;;;;;;;3.63;90.36;104169.13;5028305;28;20004;-69
2022/01/12 11:49:32;;;;;;;;;;;;;;;3.70;90.40;104169.97;5024806;28;20012;-70
2022/01/12 11:51:58;;;;;;;;;;;;;;;3.72;90.39;104170.13;5025363;28;19951;-70
2022/01/12 11:54:33;;;;;;;;;;;;;;;3.73;90.47;104169.38;5010980;28;19909;-69
2022/01/12 11:56:58;;;;;;;;;;;;;;;3.77;90.48;104173.22;5026821;28;19909;-69
2022/01/12 11:59:26;;;;;;;;;;;;;;;3.81;90.40;104178.00;5027231;28;20161;-69
2022/01/12 12:02:10;;;;;;;;;;;;;;;3.78;90.61;104173.41;5025701;28;19920;-67
2022/01/12 12:04:36;;;;;;;;;;;;;;;3.70;90.38;104169.03;5025509;28;20231;-68
2022/01/12 12:07:02;;;;;;;;;;;;;;;3.69;90.41;104164.63;5029480;28;19909;-68
2022/01/12 12:09:56;;;;;;;;;;;;;;;3.70;90.35;104158.69;5025086;28;20250;-69
2022/01/12 12:12:21;;;;;;;;;;;;;;;3.71;90.34;104161.44;5026371;28;20259;-70
2022/01/12 12:14:48;;;;;;;;;;;;;;;3.73;90.46;104158.09;5025630;28;19913;-70
2022/01/12 12:17:17;;;;;;;;;;;;;;;3.76;90.50;104149.00;5027702;28;19979;-69
2022/01/12 12:19:42;;;;;;;;;;;;;;;3.80;90.40;104150.25;5026220;28;19909;-69
2022/01/12 12:22:12;;;;;;;;;;;;;;;3.83;90.18;104150.56;5027336;28;21182;-69
2022/01/12 12:24:37;;;;;;;;;;;;;;;3.89;90.27;104150.31;5025483;28;19924;-69
2022/01/12 12:27:02;;;;;;;;;;;;;;;3.93;90.38;104148.22;5025789;28;20271;-69
2022/01/12 12:29:28;;;;;;;;;;;;;;;3.95;90.38;104138.94;5026918;28;19920;-69
2022/01/12 12:31:53;;;;;;;;;;;;;;;3.88;90.46;104141.63;5027870;28;19932;-68
2022/01/12 12:34:23;;;;;;;;;;;;;;;3.88;90.36;104141.63;5025610;28;20311;-68
2022/01/12 12:36:58;;;;;;;;;;;;;;;3.88;90.33;104138.09;5024329;28;19909;-70
2022/01/12 12:39:24;;;;;;;;;;;;;;;3.84;90.25;104130.00;5024747;28;20256;-67
2022/01/12 12:41:50;;;;;;;;;;;;;;;3.87;90.59;104131.09;5024719;28;19979;-70
2022/01/12 12:44:23;;;;;;;;;;;;;;;3.88;90.53;104136.44;5027788;28;19944;-71
2022/01/12 12:46:55;;;;;;;;;;;;;;;3.94;90.27;104143.97;5027016;28;20191;-69
2022/01/12 12:49:23;;;;;;;;;;;;;;;4.01;90.56;104145.53;5026646;28;19966;-69
2022/01/12 12:51:59;;;;;;;;;;;;;;;4.07;90.71;104146.22;5027157;28;19960;-69
2022/01/12 12:54:24;;;;;;;;;;;;;;;4.11;90.52;104141.50;5009538;28;19913;-69
2022/01/12 12:56:52;;;;;;;;;;;;;;;4.18;90.63;104149.97;5023943;28;20165;-69
2022/01/12 12:59:20;;;;;;;;;;;;;;;4.21;90.89;104153.81;5019648;28;20254;-70
2022/01/12 13:01:45;;;;;;;;;;;;;;;4.26;91.01;104162.09;5036337;28;19909;-70